sensor_id;sensor_type;location;lat;lon;timestamp;temperature;humidity
32706;DHT22;19094;50.972;3.538;2023-04-28T00:01:52;16.70;55.50
32706;DHT22;19094;50.972;3.538;2023-04-28T00:04:18;16.70;55.40
32706;DHT22;19094;50.972;3.538;2023-04-28T00:06:43;16.70;55.60
32706;DHT22;19094;50.972;3.538;2023-04-28T00:09:09;16.70;55.70
32706;DHT22;19094;50.972;3.538;2023-04-28T00:11:36;16.60;55.50
32706;DHT22;19094;50.972;3.538;2023-04-28T00:14:03;16.60;55.40
32706;DHT22;19094;50.972;3.538;2023-04-28T00:16:29;16.60;55.40
32706;DHT22;19094;50.972;3.538;2023-04-28T00:18:55;16.70;55.10
32706;DHT22;19094;50.972;3.538;2023-04-28T00:21:21;16.70;55.20
32706;DHT22;19094;50.972;3.538;2023-04-28T00:23:46;16.60;55.30
32706;DHT22;19094;50.972;3.538;2023-04-28T00:26:12;16.60;55.30
32706;DHT22;19094;50.972;3.538;2023-04-28T00:28:38;16.70;55.30
32706;DHT22;19094;50.972;3.538;2023-04-28T00:31:10;16.60;55.30
32706;DHT22;19094;50.972;3.538;2023-04-28T00:33:40;16.70;55.30
32706;DHT22;19094;50.972;3.538;2023-04-28T00:36:06;16.70;56.00
32706;DHT22;19094;50.972;3.538;2023-04-28T00:38:32;16.80;55.20
32706;DHT22;19094;50.972;3.538;2023-04-28T00:40:57;16.80;55.00
32706;DHT22;19094;50.972;3.538;2023-04-28T00:43:23;16.80;55.10
32706;DHT22;19094;50.972;3.538;2023-04-28T00:45:49;16.70;55.00
32706;DHT22;19094;50.972;3.538;2023-04-28T00:48:16;16.70;55.30
32706;DHT22;19094;50.972;3.538;2023-04-28T00:50:43;16.70;55.50
32706;DHT22;19094;50.972;3.538;2023-04-28T00:53:12;16.70;56.20
32706;DHT22;19094;50.972;3.538;2023-04-28T00:55:38;16.60;55.70
32706;DHT22;19094;50.972;3.538;2023-04-28T00:58:05;16.60;55.80
32706;DHT22;19094;50.972;3.538;2023-04-28T01:00:31;16.60;55.90
32706;DHT22;19094;50.972;3.538;2023-04-28T01:02:57;16.70;55.90
32706;DHT22;19094;50.972;3.538;2023-04-28T01:05:25;16.60;56.00
32706;DHT22;19094;50.972;3.538;2023-04-28T01:07:51;16.60;56.40
32706;DHT22;19094;50.972;3.538;2023-04-28T01:10:17;16.60;56.50
32706;DHT22;19094;50.972;3.538;2023-04-28T01:12:43;16.60;56.40
32706;DHT22;19094;50.972;3.538;2023-04-28T01:15:16;16.50;56.40
32706;DHT22;19094;50.972;3.538;2023-04-28T01:17:42;16.40;56.60
32706;DHT22;19094;50.972;3.538;2023-04-28T01:20:08;16.40;56.70
32706;DHT22;19094;50.972;3.538;2023-04-28T01:22:34;16.40;56.80
32706;DHT22;19094;50.972;3.538;2023-04-28T01:25:00;16.40;57.00
32706;DHT22;19094;50.972;3.538;2023-04-28T01:27:27;16.30;56.90
32706;DHT22;19094;50.972;3.538;2023-04-28T01:29:53;16.40;57.00
32706;DHT22;19094;50.972;3.538;2023-04-28T01:32:19;16.30;56.90
32706;DHT22;19094;50.972;3.538;2023-04-28T01:34:44;16.20;57.10
32706;DHT22;19094;50.972;3.538;2023-04-28T01:37:10;16.30;57.10
32706;DHT22;19094;50.972;3.538;2023-04-28T01:39:36;16.20;57.40
32706;DHT22;19094;50.972;3.538;2023-04-28T01:42:01;16.20;57.40
32706;DHT22;19094;50.972;3.538;2023-04-28T01:44:27;16.20;57.60
32706;DHT22;19094;50.972;3.538;2023-04-28T01:46:52;16.20;57.50
32706;DHT22;19094;50.972;3.538;2023-04-28T01:49:18;16.20;57.60
32706;DHT22;19094;50.972;3.538;2023-04-28T01:51:44;16.20;57.40
32706;DHT22;19094;50.972;3.538;2023-04-28T01:54:10;16.10;57.60
32706;DHT22;19094;50.972;3.538;2023-04-28T01:56:35;16.10;57.80
32706;DHT22;19094;50.972;3.538;2023-04-28T01:59:01;16.10;57.80
32706;DHT22;19094;50.972;3.538;2023-04-28T02:01:26;16.00;57.90
32706;DHT22;19094;50.972;3.538;2023-04-28T02:03:52;16.10;57.80
32706;DHT22;19094;50.972;3.538;2023-04-28T02:06:19;16.10;57.80
32706;DHT22;19094;50.972;3.538;2023-04-28T02:08:45;16.10;57.90
32706;DHT22;19094;50.972;3.538;2023-04-28T02:11:10;16.00;57.90
32706;DHT22;19094;50.972;3.538;2023-04-28T02:13:36;16.00;58.00
32706;DHT22;19094;50.972;3.538;2023-04-28T02:16:02;16.10;58.00
32706;DHT22;19094;50.972;3.538;2023-04-28T02:18:28;16.10;58.00
32706;DHT22;19094;50.972;3.538;2023-04-28T02:20:54;16.10;58.10
32706;DHT22;19094;50.972;3.538;2023-04-28T02:23:20;16.10;58.20
32706;DHT22;19094;50.972;3.538;2023-04-28T02:25:48;16.10;58.30
32706;DHT22;19094;50.972;3.538;2023-04-28T02:28:14;16.10;58.40
32706;DHT22;19094;50.972;3.538;2023-04-28T02:30:40;16.10;58.40
32706;DHT22;19094;50.972;3.538;2023-04-28T02:33:05;16.10;58.50
32706;DHT22;19094;50.972;3.538;2023-04-28T02:35:31;16.10;58.40
32706;DHT22;19094;50.972;3.538;2023-04-28T02:37:57;16.20;58.60
32706;DHT22;19094;50.972;3.538;2023-04-28T02:40:22;16.20;58.50
32706;DHT22;19094;50.972;3.538;2023-04-28T02:42:48;16.20;58.50
32706;DHT22;19094;50.972;3.538;2023-04-28T02:45:13;16.20;58.70
32706;DHT22;19094;50.972;3.538;2023-04-28T02:47:39;16.20;58.90
32706;DHT22;19094;50.972;3.538;2023-04-28T02:50:05;16.20;58.80
32706;DHT22;19094;50.972;3.538;2023-04-28T02:52:31;16.10;58.70
32706;DHT22;19094;50.972;3.538;2023-04-28T02:54:57;16.10;58.80
32706;DHT22;19094;50.972;3.538;2023-04-28T02:57:23;16.10;58.80
32706;DHT22;19094;50.972;3.538;2023-04-28T02:59:49;16.10;59.10
32706;DHT22;19094;50.972;3.538;2023-04-28T03:02:15;16.10;59.00
32706;DHT22;19094;50.972;3.538;2023-04-28T03:04:40;16.10;59.00
32706;DHT22;19094;50.972;3.538;2023-04-28T03:07:06;16.10;58.80
32706;DHT22;19094;50.972;3.538;2023-04-28T03:09:32;16.10;58.90
32706;DHT22;19094;50.972;3.538;2023-04-28T03:11:58;16.10;59.00
32706;DHT22;19094;50.972;3.538;2023-04-28T03:14:23;16.10;59.10
32706;DHT22;19094;50.972;3.538;2023-04-28T03:16:49;16.10;59.00
32706;DHT22;19094;50.972;3.538;2023-04-28T03:19:15;16.10;58.90
32706;DHT22;19094;50.972;3.538;2023-04-28T03:21:41;16.10;58.80
32706;DHT22;19094;50.972;3.538;2023-04-28T03:24:06;16.20;58.90
32706;DHT22;19094;50.972;3.538;2023-04-28T03:26:32;16.20;58.80
32706;DHT22;19094;50.972;3.538;2023-04-28T03:28:58;16.10;59.00
32706;DHT22;19094;50.972;3.538;2023-04-28T03:31:24;16.20;59.20
32706;DHT22;19094;50.972;3.538;2023-04-28T03:33:49;16.10;59.10
32706;DHT22;19094;50.972;3.538;2023-04-28T03:36:15;16.10;59.30
32706;DHT22;19094;50.972;3.538;2023-04-28T03:38:41;16.20;59.20
32706;DHT22;19094;50.972;3.538;2023-04-28T03:41:06;16.20;59.30
32706;DHT22;19094;50.972;3.538;2023-04-28T03:43:32;16.20;59.20
32706;DHT22;19094;50.972;3.538;2023-04-28T03:46:00;16.10;59.60
32706;DHT22;19094;50.972;3.538;2023-04-28T03:48:25;16.20;59.40
32706;DHT22;19094;50.972;3.538;2023-04-28T03:50:51;16.20;59.70
32706;DHT22;19094;50.972;3.538;2023-04-28T03:53:17;16.20;59.70
32706;DHT22;19094;50.972;3.538;2023-04-28T03:55:43;16.20;60.00
32706;DHT22;19094;50.972;3.538;2023-04-28T03:58:09;16.20;59.70
32706;DHT22;19094;50.972;3.538;2023-04-28T04:00:34;16.20;59.70
32706;DHT22;19094;50.972;3.538;2023-04-28T04:03:00;16.20;60.30
32706;DHT22;19094;50.972;3.538;2023-04-28T04:05:26;16.20;59.80
32706;DHT22;19094;50.972;3.538;2023-04-28T04:07:51;16.20;59.90
32706;DHT22;19094;50.972;3.538;2023-04-28T04:10:17;16.20;60.30
32706;DHT22;19094;50.972;3.538;2023-04-28T04:12:43;16.30;59.80
32706;DHT22;19094;50.972;3.538;2023-04-28T04:15:08;16.20;59.80
32706;DHT22;19094;50.972;3.538;2023-04-28T04:17:34;16.20;60.40
32706;DHT22;19094;50.972;3.538;2023-04-28T04:20:00;16.20;60.30
32706;DHT22;19094;50.972;3.538;2023-04-28T04:22:25;16.20;60.80
32706;DHT22;19094;50.972;3.538;2023-04-28T04:24:51;16.20;60.30
32706;DHT22;19094;50.972;3.538;2023-04-28T04:27:17;16.20;59.80
32706;DHT22;19094;50.972;3.538;2023-04-28T04:29:43;16.30;60.30
32706;DHT22;19094;50.972;3.538;2023-04-28T04:32:09;16.20;60.10
32706;DHT22;19094;50.972;3.538;2023-04-28T04:34:35;16.30;60.90
32706;DHT22;19094;50.972;3.538;2023-04-28T04:37:01;16.20;60.50
32706;DHT22;19094;50.972;3.538;2023-04-28T04:39:26;16.30;60.40
32706;DHT22;19094;50.972;3.538;2023-04-28T04:41:52;16.30;60.30
32706;DHT22;19094;50.972;3.538;2023-04-28T04:44:18;16.20;62.00
32706;DHT22;19094;50.972;3.538;2023-04-28T04:46:44;16.30;62.40
32706;DHT22;19094;50.972;3.538;2023-04-28T04:49:10;16.30;62.30
32706;DHT22;19094;50.972;3.538;2023-04-28T04:51:36;16.40;63.20
32706;DHT22;19094;50.972;3.538;2023-04-28T04:54:02;16.40;62.70
32706;DHT22;19094;50.972;3.538;2023-04-28T04:56:28;16.40;63.30
32706;DHT22;19094;50.972;3.538;2023-04-28T04:58:53;16.40;62.70
32706;DHT22;19094;50.972;3.538;2023-04-28T05:01:19;16.40;62.70
32706;DHT22;19094;50.972;3.538;2023-04-28T05:03:44;16.40;62.40
32706;DHT22;19094;50.972;3.538;2023-04-28T05:06:10;16.40;62.40
32706;DHT22;19094;50.972;3.538;2023-04-28T05:08:36;16.40;63.50
32706;DHT22;19094;50.972;3.538;2023-04-28T05:11:02;16.40;63.50
32706;DHT22;19094;50.972;3.538;2023-04-28T05:13:27;16.40;63.50
32706;DHT22;19094;50.972;3.538;2023-04-28T05:15:53;16.30;63.20
32706;DHT22;19094;50.972;3.538;2023-04-28T05:18:18;16.40;63.00
32706;DHT22;19094;50.972;3.538;2023-04-28T05:20:44;16.30;62.90
32706;DHT22;19094;50.972;3.538;2023-04-28T05:23:10;16.30;63.30
32706;DHT22;19094;50.972;3.538;2023-04-28T05:25:35;16.30;63.60
32706;DHT22;19094;50.972;3.538;2023-04-28T05:28:01;16.30;63.90
32706;DHT22;19094;50.972;3.538;2023-04-28T05:30:32;16.30;63.00
32706;DHT22;19094;50.972;3.538;2023-04-28T05:32:57;16.20;63.20
32706;DHT22;19094;50.972;3.538;2023-04-28T05:35:23;16.20;63.40
32706;DHT22;19094;50.972;3.538;2023-04-28T05:37:49;16.30;62.80
32706;DHT22;19094;50.972;3.538;2023-04-28T05:40:14;16.20;63.20
32706;DHT22;19094;50.972;3.538;2023-04-28T05:42:40;16.30;64.10
32706;DHT22;19094;50.972;3.538;2023-04-28T05:45:06;16.30;64.10
32706;DHT22;19094;50.972;3.538;2023-04-28T05:47:32;16.30;64.10
32706;DHT22;19094;50.972;3.538;2023-04-28T05:49:58;16.30;64.50
32706;DHT22;19094;50.972;3.538;2023-04-28T05:52:23;16.40;63.70
32706;DHT22;19094;50.972;3.538;2023-04-28T05:54:49;16.40;64.70
32706;DHT22;19094;50.972;3.538;2023-04-28T05:57:15;16.40;64.30
32706;DHT22;19094;50.972;3.538;2023-04-28T05:59:40;16.40;64.40
32706;DHT22;19094;50.972;3.538;2023-04-28T06:02:06;16.40;64.20
32706;DHT22;19094;50.972;3.538;2023-04-28T06:04:32;16.40;64.20
32706;DHT22;19094;50.972;3.538;2023-04-28T06:06:57;16.40;64.30
32706;DHT22;19094;50.972;3.538;2023-04-28T06:09:23;16.40;64.70
32706;DHT22;19094;50.972;3.538;2023-04-28T06:11:49;16.60;65.10
32706;DHT22;19094;50.972;3.538;2023-04-28T06:14:15;16.60;65.80
32706;DHT22;19094;50.972;3.538;2023-04-28T06:16:40;16.60;64.30
32706;DHT22;19094;50.972;3.538;2023-04-28T06:19:06;16.50;64.40
32706;DHT22;19094;50.972;3.538;2023-04-28T06:21:32;16.60;64.80
32706;DHT22;19094;50.972;3.538;2023-04-28T06:23:57;16.50;64.30
32706;DHT22;19094;50.972;3.538;2023-04-28T06:26:23;16.50;64.10
32706;DHT22;19094;50.972;3.538;2023-04-28T06:28:49;16.50;63.70
32706;DHT22;19094;50.972;3.538;2023-04-28T06:31:15;16.50;64.50
32706;DHT22;19094;50.972;3.538;2023-04-28T06:33:41;16.50;64.10
32706;DHT22;19094;50.972;3.538;2023-04-28T06:36:07;16.40;64.30
32706;DHT22;19094;50.972;3.538;2023-04-28T06:38:33;16.40;65.00
32706;DHT22;19094;50.972;3.538;2023-04-28T06:40:58;16.40;64.30
32706;DHT22;19094;50.972;3.538;2023-04-28T06:43:24;16.40;64.60
32706;DHT22;19094;50.972;3.538;2023-04-28T06:45:50;16.50;64.90
32706;DHT22;19094;50.972;3.538;2023-04-28T06:48:15;16.50;64.40
32706;DHT22;19094;50.972;3.538;2023-04-28T06:50:41;16.50;64.00
32706;DHT22;19094;50.972;3.538;2023-04-28T06:53:07;16.50;63.70
32706;DHT22;19094;50.972;3.538;2023-04-28T06:55:33;16.50;64.10
32706;DHT22;19094;50.972;3.538;2023-04-28T06:57:59;16.50;64.90
32706;DHT22;19094;50.972;3.538;2023-04-28T07:00:24;16.50;64.40
32706;DHT22;19094;50.972;3.538;2023-04-28T07:02:50;16.50;64.30
32706;DHT22;19094;50.972;3.538;2023-04-28T07:05:16;16.60;64.00
32706;DHT22;19094;50.972;3.538;2023-04-28T07:07:42;16.60;63.80
32706;DHT22;19094;50.972;3.538;2023-04-28T07:10:08;16.70;64.60
32706;DHT22;19094;50.972;3.538;2023-04-28T07:12:34;16.70;64.50
32706;DHT22;19094;50.972;3.538;2023-04-28T07:14:59;16.70;64.40
32706;DHT22;19094;50.972;3.538;2023-04-28T07:17:25;16.70;64.10
32706;DHT22;19094;50.972;3.538;2023-04-28T07:19:51;16.70;64.20
32706;DHT22;19094;50.972;3.538;2023-04-28T07:22:16;16.70;64.10
32706;DHT22;19094;50.972;3.538;2023-04-28T07:24:43;16.70;65.10
32706;DHT22;19094;50.972;3.538;2023-04-28T07:27:09;16.60;66.30
32706;DHT22;19094;50.972;3.538;2023-04-28T07:29:34;16.70;65.80
32706;DHT22;19094;50.972;3.538;2023-04-28T07:32:00;16.60;66.50
32706;DHT22;19094;50.972;3.538;2023-04-28T07:34:27;16.60;66.80
32706;DHT22;19094;50.972;3.538;2023-04-28T07:36:53;16.60;66.70
32706;DHT22;19094;50.972;3.538;2023-04-28T07:39:19;16.70;67.00
32706;DHT22;19094;50.972;3.538;2023-04-28T07:41:44;16.80;65.70
32706;DHT22;19094;50.972;3.538;2023-04-28T07:44:10;16.80;65.60
32706;DHT22;19094;50.972;3.538;2023-04-28T07:46:36;16.90;66.40
32706;DHT22;19094;50.972;3.538;2023-04-28T07:49:02;17.00;66.60
32706;DHT22;19094;50.972;3.538;2023-04-28T07:51:29;17.00;66.50
32706;DHT22;19094;50.972;3.538;2023-04-28T07:53:55;17.00;65.60
32706;DHT22;19094;50.972;3.538;2023-04-28T07:56:21;17.00;65.50
32706;DHT22;19094;50.972;3.538;2023-04-28T07:58:47;17.20;66.20
32706;DHT22;19094;50.972;3.538;2023-04-28T08:01:13;17.20;66.20
32706;DHT22;19094;50.972;3.538;2023-04-28T08:03:39;17.30;66.20
32706;DHT22;19094;50.972;3.538;2023-04-28T08:06:05;17.30;66.50
32706;DHT22;19094;50.972;3.538;2023-04-28T08:08:31;17.30;66.10
32706;DHT22;19094;50.972;3.538;2023-04-28T08:10:56;17.30;65.90
32706;DHT22;19094;50.972;3.538;2023-04-28T08:13:23;17.30;66.20
32706;DHT22;19094;50.972;3.538;2023-04-28T08:15:49;17.30;64.60
32706;DHT22;19094;50.972;3.538;2023-04-28T08:18:15;17.30;65.10
32706;DHT22;19094;50.972;3.538;2023-04-28T08:20:41;17.40;65.20
32706;DHT22;19094;50.972;3.538;2023-04-28T08:23:07;17.40;64.50
32706;DHT22;19094;50.972;3.538;2023-04-28T08:25:33;17.40;64.50
32706;DHT22;19094;50.972;3.538;2023-04-28T08:27:59;17.40;64.60
32706;DHT22;19094;50.972;3.538;2023-04-28T08:30:25;17.30;63.50
32706;DHT22;19094;50.972;3.538;2023-04-28T08:32:51;17.20;64.10
32706;DHT22;19094;50.972;3.538;2023-04-28T08:35:16;17.30;63.40
32706;DHT22;19094;50.972;3.538;2023-04-28T08:37:43;17.30;63.40
32706;DHT22;19094;50.972;3.538;2023-04-28T08:40:10;17.40;63.30
32706;DHT22;19094;50.972;3.538;2023-04-28T08:42:37;17.40;63.30
32706;DHT22;19094;50.972;3.538;2023-04-28T08:45:04;17.40;62.70
32706;DHT22;19094;50.972;3.538;2023-04-28T08:47:37;17.40;62.50
32706;DHT22;19094;50.972;3.538;2023-04-28T08:50:05;17.40;62.70
32706;DHT22;19094;50.972;3.538;2023-04-28T08:52:31;17.40;64.10
32706;DHT22;19094;50.972;3.538;2023-04-28T08:55:04;17.30;65.40
32706;DHT22;19094;50.972;3.538;2023-04-28T08:57:49;17.20;66.50
32706;DHT22;19094;50.972;3.538;2023-04-28T09:00:16;17.10;66.90
32706;DHT22;19094;50.972;3.538;2023-04-28T09:02:42;17.10;66.60
32706;DHT22;19094;50.972;3.538;2023-04-28T09:05:08;17.10;66.30
32706;DHT22;19094;50.972;3.538;2023-04-28T09:07:34;17.30;66.20
32706;DHT22;19094;50.972;3.538;2023-04-28T09:10:23;17.20;65.80
32706;DHT22;19094;50.972;3.538;2023-04-28T09:12:53;17.40;65.40
32706;DHT22;19094;50.972;3.538;2023-04-28T09:15:36;17.40;64.50
32706;DHT22;19094;50.972;3.538;2023-04-28T09:18:03;17.30;65.80
32706;DHT22;19094;50.972;3.538;2023-04-28T09:20:31;17.20;65.20
32706;DHT22;19094;50.972;3.538;2023-04-28T09:23:15;17.20;66.10
32706;DHT22;19094;50.972;3.538;2023-04-28T09:26:05;17.20;65.90
32706;DHT22;19094;50.972;3.538;2023-04-28T09:28:33;17.30;64.70
32706;DHT22;19094;50.972;3.538;2023-04-28T09:30:59;17.20;65.80
32706;DHT22;19094;50.972;3.538;2023-04-28T09:33:25;17.20;65.80
32706;DHT22;19094;50.972;3.538;2023-04-28T09:35:51;17.20;66.00
32706;DHT22;19094;50.972;3.538;2023-04-28T09:38:18;17.30;65.30
32706;DHT22;19094;50.972;3.538;2023-04-28T09:43:31;17.40;66.40
32706;DHT22;19094;50.972;3.538;2023-04-28T09:46:01;17.40;67.10
32706;DHT22;19094;50.972;3.538;2023-04-28T09:48:31;17.40;65.80
32706;DHT22;19094;50.972;3.538;2023-04-28T09:50:59;17.40;65.80
32706;DHT22;19094;50.972;3.538;2023-04-28T09:53:26;17.50;65.80
32706;DHT22;19094;50.972;3.538;2023-04-28T09:55:54;17.50;65.50
32706;DHT22;19094;50.972;3.538;2023-04-28T09:58:22;17.50;65.60
32706;DHT22;19094;50.972;3.538;2023-04-28T10:00:53;17.60;65.30
32706;DHT22;19094;50.972;3.538;2023-04-28T10:03:24;17.60;65.20
32706;DHT22;19094;50.972;3.538;2023-04-28T10:05:50;17.60;65.00
32706;DHT22;19094;50.972;3.538;2023-04-28T10:08:18;17.50;65.20
32706;DHT22;19094;50.972;3.538;2023-04-28T10:10:46;17.50;65.30
32706;DHT22;19094;50.972;3.538;2023-04-28T10:13:17;17.50;65.10
32706;DHT22;19094;50.972;3.538;2023-04-28T10:15:44;17.50;64.60
32706;DHT22;19094;50.972;3.538;2023-04-28T10:18:11;17.50;64.60
32706;DHT22;19094;50.972;3.538;2023-04-28T10:20:38;17.60;64.20
32706;DHT22;19094;50.972;3.538;2023-04-28T10:26:12;17.60;64.50
32706;DHT22;19094;50.972;3.538;2023-04-28T10:28:49;17.50;64.00
32706;DHT22;19094;50.972;3.538;2023-04-28T10:31:17;17.30;65.10
32706;DHT22;19094;50.972;3.538;2023-04-28T10:33:43;17.30;64.90
32706;DHT22;19094;50.972;3.538;2023-04-28T10:36:10;17.30;64.80
32706;DHT22;19094;50.972;3.538;2023-04-28T10:39:08;17.30;64.50
32706;DHT22;19094;50.972;3.538;2023-04-28T10:41:34;17.50;65.00
32706;DHT22;19094;50.972;3.538;2023-04-28T10:43:59;17.50;64.00
32706;DHT22;19094;50.972;3.538;2023-04-28T10:46:25;17.50;63.90
32706;DHT22;19094;50.972;3.538;2023-04-28T10:48:52;17.50;64.10
32706;DHT22;19094;50.972;3.538;2023-04-28T10:56:19;17.60;64.30
32706;DHT22;19094;50.972;3.538;2023-04-28T10:58:50;17.60;63.40
32706;DHT22;19094;50.972;3.538;2023-04-28T11:06:44;17.60;63.40
32706;DHT22;19094;50.972;3.538;2023-04-28T11:11:39;17.60;63.50
32706;DHT22;19094;50.972;3.538;2023-04-28T11:19:23;17.60;63.70
32706;DHT22;19094;50.972;3.538;2023-04-28T11:21:52;17.70;63.40
32706;DHT22;19094;50.972;3.538;2023-04-28T11:24:18;17.70;63.20
32706;DHT22;19094;50.972;3.538;2023-04-28T11:26:44;17.70;63.40
32706;DHT22;19094;50.972;3.538;2023-04-28T11:29:11;17.80;62.80
32706;DHT22;19094;50.972;3.538;2023-04-28T11:31:37;17.80;62.90
32706;DHT22;19094;50.972;3.538;2023-04-28T11:34:09;17.80;62.70
32706;DHT22;19094;50.972;3.538;2023-04-28T11:36:44;17.80;62.50
32706;DHT22;19094;50.972;3.538;2023-04-28T11:39:11;17.80;62.50
32706;DHT22;19094;50.972;3.538;2023-04-28T11:41:39;17.90;62.60
32706;DHT22;19094;50.972;3.538;2023-04-28T11:44:19;17.90;62.30
32706;DHT22;19094;50.972;3.538;2023-04-28T11:49:15;17.80;62.30
32706;DHT22;19094;50.972;3.538;2023-04-28T11:51:41;17.90;61.80
32706;DHT22;19094;50.972;3.538;2023-04-28T11:54:07;17.90;62.10
32706;DHT22;19094;50.972;3.538;2023-04-28T11:56:40;17.90;62.10
32706;DHT22;19094;50.972;3.538;2023-04-28T11:59:11;17.70;62.50
32706;DHT22;19094;50.972;3.538;2023-04-28T12:01:50;17.70;62.90
32706;DHT22;19094;50.972;3.538;2023-04-28T12:04:35;17.80;62.60
32706;DHT22;19094;50.972;3.538;2023-04-28T12:07:18;17.80;62.30
32706;DHT22;19094;50.972;3.538;2023-04-28T12:09:45;17.70;63.20
32706;DHT22;19094;50.972;3.538;2023-04-28T12:12:29;17.60;63.40
32706;DHT22;19094;50.972;3.538;2023-04-28T12:15:01;17.80;63.90
32706;DHT22;19094;50.972;3.538;2023-04-28T12:17:34;17.90;63.00
32706;DHT22;19094;50.972;3.538;2023-04-28T12:20:02;17.90;62.90
32706;DHT22;19094;50.972;3.538;2023-04-28T12:22:29;17.90;62.50
32706;DHT22;19094;50.972;3.538;2023-04-28T12:25:11;17.90;62.80
32706;DHT22;19094;50.972;3.538;2023-04-28T12:27:38;17.90;62.90
32706;DHT22;19094;50.972;3.538;2023-04-28T12:32:45;17.90;62.50
32706;DHT22;19094;50.972;3.538;2023-04-28T12:35:11;17.90;62.40
32706;DHT22;19094;50.972;3.538;2023-04-28T12:37:37;17.80;63.20
32706;DHT22;19094;50.972;3.538;2023-04-28T12:40:07;17.90;63.10
32706;DHT22;19094;50.972;3.538;2023-04-28T12:42:34;17.90;63.00
32706;DHT22;19094;50.972;3.538;2023-04-28T12:44:59;17.90;62.80
32706;DHT22;19094;50.972;3.538;2023-04-28T12:47:25;17.90;63.10
32706;DHT22;19094;50.972;3.538;2023-04-28T12:49:51;18.00;63.00
32706;DHT22;19094;50.972;3.538;2023-04-28T12:52:18;18.00;63.00
32706;DHT22;19094;50.972;3.538;2023-04-28T12:54:44;18.00;62.80
32706;DHT22;19094;50.972;3.538;2023-04-28T12:57:14;18.00;63.20
32706;DHT22;19094;50.972;3.538;2023-04-28T12:59:39;18.00;62.80
32706;DHT22;19094;50.972;3.538;2023-04-28T13:02:06;18.00;62.70
32706;DHT22;19094;50.972;3.538;2023-04-28T13:04:32;18.00;62.80
32706;DHT22;19094;50.972;3.538;2023-04-28T13:06:58;18.00;62.80
32706;DHT22;19094;50.972;3.538;2023-04-28T13:09:24;18.00;62.70
32706;DHT22;19094;50.972;3.538;2023-04-28T13:11:50;18.00;62.90
32706;DHT22;19094;50.972;3.538;2023-04-28T13:14:18;18.00;63.30
32706;DHT22;19094;50.972;3.538;2023-04-28T13:16:44;18.00;63.50
32706;DHT22;19094;50.972;3.538;2023-04-28T13:19:11;18.00;63.70
32706;DHT22;19094;50.972;3.538;2023-04-28T13:21:39;18.10;64.10
32706;DHT22;19094;50.972;3.538;2023-04-28T13:24:06;17.90;63.00
32706;DHT22;19094;50.972;3.538;2023-04-28T13:26:33;17.60;65.90
32706;DHT22;19094;50.972;3.538;2023-04-28T13:28:59;17.70;66.90
32706;DHT22;19094;50.972;3.538;2023-04-28T13:31:29;17.80;66.60
32706;DHT22;19094;50.972;3.538;2023-04-28T13:33:56;17.90;65.40
32706;DHT22;19094;50.972;3.538;2023-04-28T13:36:22;18.00;65.70
32706;DHT22;19094;50.972;3.538;2023-04-28T13:38:48;18.00;65.60
32706;DHT22;19094;50.972;3.538;2023-04-28T13:41:15;18.10;65.90
32706;DHT22;19094;50.972;3.538;2023-04-28T13:43:41;18.10;65.30
32706;DHT22;19094;50.972;3.538;2023-04-28T13:46:06;18.20;65.80
32706;DHT22;19094;50.972;3.538;2023-04-28T13:48:36;18.20;65.30
32706;DHT22;19094;50.972;3.538;2023-04-28T13:51:03;18.20;64.60
32706;DHT22;19094;50.972;3.538;2023-04-28T13:53:30;18.30;65.60
32706;DHT22;19094;50.972;3.538;2023-04-28T13:55:56;18.20;64.30
32706;DHT22;19094;50.972;3.538;2023-04-28T13:58:23;18.20;64.60
32706;DHT22;19094;50.972;3.538;2023-04-28T14:00:49;18.20;64.60
32706;DHT22;19094;50.972;3.538;2023-04-28T14:03:15;18.20;64.40
32706;DHT22;19094;50.972;3.538;2023-04-28T14:05:41;18.30;64.80
32706;DHT22;19094;50.972;3.538;2023-04-28T14:08:08;18.20;64.60
32706;DHT22;19094;50.972;3.538;2023-04-28T14:10:34;18.20;63.70
32706;DHT22;19094;50.972;3.538;2023-04-28T14:13:00;18.20;63.40
32706;DHT22;19094;50.972;3.538;2023-04-28T14:15:26;18.20;63.10
32706;DHT22;19094;50.972;3.538;2023-04-28T14:17:52;18.10;62.80
32706;DHT22;19094;50.972;3.538;2023-04-28T14:20:17;18.20;62.80
32706;DHT22;19094;50.972;3.538;2023-04-28T14:22:43;18.10;63.10
32706;DHT22;19094;50.972;3.538;2023-04-28T14:25:09;18.20;62.70
32706;DHT22;19094;50.972;3.538;2023-04-28T14:27:35;18.10;62.90
32706;DHT22;19094;50.972;3.538;2023-04-28T14:30:00;18.20;62.70
32706;DHT22;19094;50.972;3.538;2023-04-28T14:32:27;18.10;62.60
32706;DHT22;19094;50.972;3.538;2023-04-28T14:34:52;18.20;62.60
32706;DHT22;19094;50.972;3.538;2023-04-28T14:37:18;18.10;62.20
32706;DHT22;19094;50.972;3.538;2023-04-28T14:39:44;18.10;62.50
32706;DHT22;19094;50.972;3.538;2023-04-28T14:42:09;18.20;62.10
32706;DHT22;19094;50.972;3.538;2023-04-28T14:44:36;18.20;62.20
32706;DHT22;19094;50.972;3.538;2023-04-28T14:47:02;18.20;62.30
32706;DHT22;19094;50.972;3.538;2023-04-28T14:49:29;18.20;62.40
32706;DHT22;19094;50.972;3.538;2023-04-28T14:51:54;18.20;62.10
32706;DHT22;19094;50.972;3.538;2023-04-28T14:54:20;18.20;61.60
32706;DHT22;19094;50.972;3.538;2023-04-28T14:56:48;18.20;61.80
32706;DHT22;19094;50.972;3.538;2023-04-28T14:59:13;18.20;61.70
32706;DHT22;19094;50.972;3.538;2023-04-28T15:01:39;18.10;61.70
32706;DHT22;19094;50.972;3.538;2023-04-28T15:04:05;18.10;61.70
32706;DHT22;19094;50.972;3.538;2023-04-28T15:06:31;18.10;61.90
32706;DHT22;19094;50.972;3.538;2023-04-28T15:08:57;18.10;61.90
32706;DHT22;19094;50.972;3.538;2023-04-28T15:11:23;18.10;62.10
32706;DHT22;19094;50.972;3.538;2023-04-28T15:13:48;18.00;61.90
32706;DHT22;19094;50.972;3.538;2023-04-28T15:16:14;18.10;62.10
32706;DHT22;19094;50.972;3.538;2023-04-28T15:18:40;18.00;61.90
32706;DHT22;19094;50.972;3.538;2023-04-28T15:21:06;18.00;62.20
32706;DHT22;19094;50.972;3.538;2023-04-28T15:23:33;18.00;62.00
32706;DHT22;19094;50.972;3.538;2023-04-28T15:25:58;18.00;62.30
32706;DHT22;19094;50.972;3.538;2023-04-28T15:28:24;18.00;62.00
32706;DHT22;19094;50.972;3.538;2023-04-28T15:30:51;18.00;62.30
32706;DHT22;19094;50.972;3.538;2023-04-28T15:33:17;18.00;62.20
32706;DHT22;19094;50.972;3.538;2023-04-28T15:35:43;18.00;62.30
32706;DHT22;19094;50.972;3.538;2023-04-28T15:38:09;18.00;62.60
32706;DHT22;19094;50.972;3.538;2023-04-28T15:40:39;18.10;62.40
32706;DHT22;19094;50.972;3.538;2023-04-28T15:43:05;18.10;62.20
32706;DHT22;19094;50.972;3.538;2023-04-28T15:45:32;18.10;62.50
32706;DHT22;19094;50.972;3.538;2023-04-28T15:47:58;18.10;62.30
32706;DHT22;19094;50.972;3.538;2023-04-28T15:50:24;18.10;62.20
32706;DHT22;19094;50.972;3.538;2023-04-28T15:52:50;18.10;62.40
32706;DHT22;19094;50.972;3.538;2023-04-28T15:55:19;18.10;62.20
32706;DHT22;19094;50.972;3.538;2023-04-28T15:57:46;18.10;62.40